sensor_id;sensor_type;location;lat;lon;timestamp;temperature;humidity
1415;DHT22;702;49.466;11.086;2023-09-08T00:00:52;17.20;82.30
1415;DHT22;702;49.466;11.086;2023-09-08T00:03:20;17.20;82.50
1415;DHT22;702;49.466;11.086;2023-09-08T00:05:49;17.10;82.60
1415;DHT22;702;49.466;11.086;2023-09-08T00:08:16;17.10;83.00
1415;DHT22;702;49.466;11.086;2023-09-08T00:10:44;17.00;83.30
1415;DHT22;702;49.466;11.086;2023-09-08T00:13:11;16.90;83.50
1415;DHT22;702;49.466;11.086;2023-09-08T00:15:38;16.90;83.40
1415;DHT22;702;49.466;11.086;2023-09-08T00:18:05;16.90;83.60
1415;DHT22;702;49.466;11.086;2023-09-08T00:20:32;16.80;84.00
1415;DHT22;702;49.466;11.086;2023-09-08T00:23:02;16.80;84.20
1415;DHT22;702;49.466;11.086;2023-09-08T00:25:29;16.80;84.50
1415;DHT22;702;49.466;11.086;2023-09-08T00:27:56;16.70;84.70
1415;DHT22;702;49.466;11.086;2023-09-08T00:30:23;16.60;85.00
1415;DHT22;702;49.466;11.086;2023-09-08T00:32:50;16.60;85.20
1415;DHT22;702;49.466;11.086;2023-09-08T00:35:18;16.60;85.10
1415;DHT22;702;49.466;11.086;2023-09-08T00:37:45;16.70;84.90
1415;DHT22;702;49.466;11.086;2023-09-08T00:40:13;16.70;85.00
1415;DHT22;702;49.466;11.086;2023-09-08T00:42:41;16.80;84.80
1415;DHT22;702;49.466;11.086;2023-09-08T00:45:08;16.80;84.90
1415;DHT22;702;49.466;11.086;2023-09-08T00:47:36;16.80;84.80
1415;DHT22;702;49.466;11.086;2023-09-08T00:50:05;16.70;85.10
1415;DHT22;702;49.466;11.086;2023-09-08T00:52:32;16.70;85.20
1415;DHT22;702;49.466;11.086;2023-09-08T00:55:00;16.70;85.20
1415;DHT22;702;49.466;11.086;2023-09-08T00:57:29;16.60;85.30
1415;DHT22;702;49.466;11.086;2023-09-08T00:59:56;16.60;85.30
1415;DHT22;702;49.466;11.086;2023-09-08T01:02:23;16.60;85.70
1415;DHT22;702;49.466;11.086;2023-09-08T01:04:51;16.50;85.80
1415;DHT22;702;49.466;11.086;2023-09-08T01:07:19;16.40;86.10
1415;DHT22;702;49.466;11.086;2023-09-08T01:09:47;16.40;85.90
1415;DHT22;702;49.466;11.086;2023-09-08T01:12:15;16.30;86.20
1415;DHT22;702;49.466;11.086;2023-09-08T01:14:44;16.20;86.30
1415;DHT22;702;49.466;11.086;2023-09-08T01:17:11;16.00;86.90
1415;DHT22;702;49.466;11.086;2023-09-08T01:19:38;16.00;87.30
1415;DHT22;702;49.466;11.086;2023-09-08T01:22:30;16.00;87.80
1415;DHT22;702;49.466;11.086;2023-09-08T01:25:23;16.00;88.40
1415;DHT22;702;49.466;11.086;2023-09-08T01:27:52;15.90;88.30
1415;DHT22;702;49.466;11.086;2023-09-08T01:30:21;15.80;88.70
1415;DHT22;702;49.466;11.086;2023-09-08T01:32:51;15.80;88.90
1415;DHT22;702;49.466;11.086;2023-09-08T01:35:19;15.80;89.30
1415;DHT22;702;49.466;11.086;2023-09-08T01:37:47;15.70;89.60
1415;DHT22;702;49.466;11.086;2023-09-08T01:40:15;15.70;90.00
1415;DHT22;702;49.466;11.086;2023-09-08T01:42:45;15.70;89.90
1415;DHT22;702;49.466;11.086;2023-09-08T01:45:13;15.70;90.00
1415;DHT22;702;49.466;11.086;2023-09-08T01:47:40;15.60;90.10
1415;DHT22;702;49.466;11.086;2023-09-08T01:50:07;15.60;90.20
1415;DHT22;702;49.466;11.086;2023-09-08T01:52:35;15.60;90.20
1415;DHT22;702;49.466;11.086;2023-09-08T01:55:03;15.50;90.50
1415;DHT22;702;49.466;11.086;2023-09-08T01:57:31;15.50;90.90
1415;DHT22;702;49.466;11.086;2023-09-08T01:59:59;15.50;90.60
1415;DHT22;702;49.466;11.086;2023-09-08T02:02:26;15.50;90.60
1415;DHT22;702;49.466;11.086;2023-09-08T02:04:53;15.50;90.50
1415;DHT22;702;49.466;11.086;2023-09-08T02:07:21;15.40;90.70
1415;DHT22;702;49.466;11.086;2023-09-08T02:09:48;15.40;90.60
1415;DHT22;702;49.466;11.086;2023-09-08T02:12:15;15.30;91.00
1415;DHT22;702;49.466;11.086;2023-09-08T02:14:42;15.20;91.00
1415;DHT22;702;49.466;11.086;2023-09-08T02:17:11;15.10;91.20
1415;DHT22;702;49.466;11.086;2023-09-08T02:19:38;14.90;91.80
1415;DHT22;702;49.466;11.086;2023-09-08T02:22:05;14.90;91.80
1415;DHT22;702;49.466;11.086;2023-09-08T02:24:32;14.80;92.20
1415;DHT22;702;49.466;11.086;2023-09-08T02:27:00;14.70;92.40
1415;DHT22;702;49.466;11.086;2023-09-08T02:29:27;14.60;92.60
1415;DHT22;702;49.466;11.086;2023-09-08T02:31:54;14.60;93.10
1415;DHT22;702;49.466;11.086;2023-09-08T02:34:23;14.50;93.40
1415;DHT22;702;49.466;11.086;2023-09-08T02:36:50;14.40;94.00
1415;DHT22;702;49.466;11.086;2023-09-08T02:39:17;14.50;93.80
1415;DHT22;702;49.466;11.086;2023-09-08T02:41:44;14.40;94.00
1415;DHT22;702;49.466;11.086;2023-09-08T02:44:12;14.30;94.20
1415;DHT22;702;49.466;11.086;2023-09-08T02:46:40;14.30;94.60
1415;DHT22;702;49.466;11.086;2023-09-08T02:49:07;14.20;94.90
1415;DHT22;702;49.466;11.086;2023-09-08T02:51:36;14.20;94.90
1415;DHT22;702;49.466;11.086;2023-09-08T02:54:03;14.20;94.80
1415;DHT22;702;49.466;11.086;2023-09-08T02:56:31;14.10;95.10
1415;DHT22;702;49.466;11.086;2023-09-08T02:58:58;14.00;95.70
1415;DHT22;702;49.466;11.086;2023-09-08T03:01:25;14.00;96.00
1415;DHT22;702;49.466;11.086;2023-09-08T03:03:52;13.90;96.50
1415;DHT22;702;49.466;11.086;2023-09-08T03:06:20;13.90;96.60
1415;DHT22;702;49.466;11.086;2023-09-08T03:08:48;13.90;96.70
1415;DHT22;702;49.466;11.086;2023-09-08T03:11:16;13.80;96.90
1415;DHT22;702;49.466;11.086;2023-09-08T03:13:43;13.90;97.10
1415;DHT22;702;49.466;11.086;2023-09-08T03:16:11;14.10;96.50
1415;DHT22;702;49.466;11.086;2023-09-08T03:18:38;14.20;95.60
1415;DHT22;702;49.466;11.086;2023-09-08T03:21:06;14.20;94.70
1415;DHT22;702;49.466;11.086;2023-09-08T03:23:36;14.20;95.30
1415;DHT22;702;49.466;11.086;2023-09-08T03:26:05;14.20;94.80
1415;DHT22;702;49.466;11.086;2023-09-08T03:28:34;14.10;95.50
1415;DHT22;702;49.466;11.086;2023-09-08T03:31:02;14.30;95.20
1415;DHT22;702;49.466;11.086;2023-09-08T03:33:30;14.40;94.60
1415;DHT22;702;49.466;11.086;2023-09-08T03:35:57;14.30;94.10
1415;DHT22;702;49.466;11.086;2023-09-08T03:38:24;14.30;94.70
1415;DHT22;702;49.466;11.086;2023-09-08T03:40:51;14.30;94.80
1415;DHT22;702;49.466;11.086;2023-09-08T03:43:20;14.20;94.20
1415;DHT22;702;49.466;11.086;2023-09-08T03:45:47;14.20;94.50
1415;DHT22;702;49.466;11.086;2023-09-08T03:48:14;14.00;94.90
1415;DHT22;702;49.466;11.086;2023-09-08T03:50:41;13.90;95.90
1415;DHT22;702;49.466;11.086;2023-09-08T03:53:11;14.00;95.50
1415;DHT22;702;49.466;11.086;2023-09-08T03:55:38;14.00;95.40
1415;DHT22;702;49.466;11.086;2023-09-08T03:58:06;14.00;95.40
1415;DHT22;702;49.466;11.086;2023-09-08T04:00:34;14.00;95.50
1415;DHT22;702;49.466;11.086;2023-09-08T04:03:02;14.00;95.30
1415;DHT22;702;49.466;11.086;2023-09-08T04:05:29;14.00;95.50
1415;DHT22;702;49.466;11.086;2023-09-08T04:07:56;14.00;96.10
1415;DHT22;702;49.466;11.086;2023-09-08T04:10:24;13.90;96.10
1415;DHT22;702;49.466;11.086;2023-09-08T04:12:51;13.90;96.40
1415;DHT22;702;49.466;11.086;2023-09-08T04:15:18;13.90;96.80
1415;DHT22;702;49.466;11.086;2023-09-08T04:17:47;13.90;96.90
1415;DHT22;702;49.466;11.086;2023-09-08T04:20:15;13.90;97.70
1415;DHT22;702;49.466;11.086;2023-09-08T04:22:42;14.00;96.60
1415;DHT22;702;49.466;11.086;2023-09-08T04:25:09;14.20;96.00
1415;DHT22;702;49.466;11.086;2023-09-08T04:27:37;14.40;94.60
1415;DHT22;702;49.466;11.086;2023-09-08T04:30:04;14.30;93.90
1415;DHT22;702;49.466;11.086;2023-09-08T04:32:32;14.30;93.90
1415;DHT22;702;49.466;11.086;2023-09-08T04:35:01;14.20;93.80
1415;DHT22;702;49.466;11.086;2023-09-08T04:37:28;14.20;93.70
1415;DHT22;702;49.466;11.086;2023-09-08T04:39:56;14.10;94.10
1415;DHT22;702;49.466;11.086;2023-09-08T04:42:23;14.00;94.20
1415;DHT22;702;49.466;11.086;2023-09-08T04:44:51;14.00;94.70
1415;DHT22;702;49.466;11.086;2023-09-08T04:47:18;13.90;94.70
1415;DHT22;702;49.466;11.086;2023-09-08T04:49:45;13.90;94.80
1415;DHT22;702;49.466;11.086;2023-09-08T04:52:14;13.90;95.10
1415;DHT22;702;49.466;11.086;2023-09-08T04:54:41;13.90;95.70
1415;DHT22;702;49.466;11.086;2023-09-08T04:57:08;13.90;95.30
1415;DHT22;702;49.466;11.086;2023-09-08T04:59:35;13.90;95.90
1415;DHT22;702;49.466;11.086;2023-09-08T05:02:05;14.00;95.40
1415;DHT22;702;49.466;11.086;2023-09-08T05:04:32;14.50;94.30
1415;DHT22;702;49.466;11.086;2023-09-08T05:06:59;15.00;92.00
1415;DHT22;702;49.466;11.086;2023-09-08T05:09:27;15.30;90.80
1415;DHT22;702;49.466;11.086;2023-09-08T05:11:55;15.70;90.30
1415;DHT22;702;49.466;11.086;2023-09-08T05:14:22;16.30;89.30
1415;DHT22;702;49.466;11.086;2023-09-08T05:16:50;16.50;87.30
1415;DHT22;702;49.466;11.086;2023-09-08T05:19:21;16.70;86.70
1415;DHT22;702;49.466;11.086;2023-09-08T05:21:50;17.30;85.50
1415;DHT22;702;49.466;11.086;2023-09-08T05:24:17;17.60;85.80
1415;DHT22;702;49.466;11.086;2023-09-08T05:26:48;17.90;83.80
1415;DHT22;702;49.466;11.086;2023-09-08T05:29:15;17.10;84.10
1415;DHT22;702;49.466;11.086;2023-09-08T05:31:43;16.50;85.40
1415;DHT22;702;49.466;11.086;2023-09-08T05:34:10;16.20;86.40
1415;DHT22;702;49.466;11.086;2023-09-08T05:36:38;15.90;86.80
1415;DHT22;702;49.466;11.086;2023-09-08T05:39:06;15.60;87.30
1415;DHT22;702;49.466;11.086;2023-09-08T05:41:34;15.40;87.90
1415;DHT22;702;49.466;11.086;2023-09-08T05:44:03;15.20;88.60
1415;DHT22;702;49.466;11.086;2023-09-08T05:46:30;15.10;89.30
1415;DHT22;702;49.466;11.086;2023-09-08T05:48:58;15.00;89.80
1415;DHT22;702;49.466;11.086;2023-09-08T05:51:25;15.00;90.00
1415;DHT22;702;49.466;11.086;2023-09-08T05:53:52;15.00;90.00
1415;DHT22;702;49.466;11.086;2023-09-08T05:56:20;15.00;90.00
1415;DHT22;702;49.466;11.086;2023-09-08T05:58:47;15.10;90.00
1415;DHT22;702;49.466;11.086;2023-09-08T06:01:16;15.20;90.00
1415;DHT22;702;49.466;11.086;2023-09-08T06:03:43;15.20;90.10
1415;DHT22;702;49.466;11.086;2023-09-08T06:06:10;15.20;90.00
1415;DHT22;702;49.466;11.086;2023-09-08T06:08:37;15.30;89.80
1415;DHT22;702;49.466;11.086;2023-09-08T06:11:05;15.30;89.70
1415;DHT22;702;49.466;11.086;2023-09-08T06:13:32;15.40;89.60
1415;DHT22;702;49.466;11.086;2023-09-08T06:15:59;15.60;89.30
1415;DHT22;702;49.466;11.086;2023-09-08T06:18:29;15.60;89.10
1415;DHT22;702;49.466;11.086;2023-09-08T06:20:57;15.70;89.10
1415;DHT22;702;49.466;11.086;2023-09-08T06:23:24;15.70;88.90
1415;DHT22;702;49.466;11.086;2023-09-08T06:25:53;15.80;88.70
1415;DHT22;702;49.466;11.086;2023-09-08T06:28:24;15.90;88.60
1415;DHT22;702;49.466;11.086;2023-09-08T06:30:52;16.00;88.50
1415;DHT22;702;49.466;11.086;2023-09-08T06:33:19;16.10;88.00
1415;DHT22;702;49.466;11.086;2023-09-08T06:35:49;16.30;87.80
1415;DHT22;702;49.466;11.086;2023-09-08T06:38:16;16.30;87.40
1415;DHT22;702;49.466;11.086;2023-09-08T06:40:43;16.40;87.30
1415;DHT22;702;49.466;11.086;2023-09-08T06:43:11;16.40;87.10
1415;DHT22;702;49.466;11.086;2023-09-08T06:45:38;16.50;87.20
1415;DHT22;702;49.466;11.086;2023-09-08T06:48:06;16.50;86.80
1415;DHT22;702;49.466;11.086;2023-09-08T06:50:34;16.60;86.60
1415;DHT22;702;49.466;11.086;2023-09-08T06:53:02;16.80;86.10
1415;DHT22;702;49.466;11.086;2023-09-08T06:55:30;16.90;85.90
1415;DHT22;702;49.466;11.086;2023-09-08T06:57:57;17.10;86.20
1415;DHT22;702;49.466;11.086;2023-09-08T07:00:24;17.20;85.60
1415;DHT22;702;49.466;11.086;2023-09-08T07:02:52;17.20;85.60
1415;DHT22;702;49.466;11.086;2023-09-08T07:05:19;17.20;85.40
1415;DHT22;702;49.466;11.086;2023-09-08T07:07:46;17.30;85.60
1415;DHT22;702;49.466;11.086;2023-09-08T07:10:15;17.40;85.20
1415;DHT22;702;49.466;11.086;2023-09-08T07:12:42;17.50;84.90
1415;DHT22;702;49.466;11.086;2023-09-08T07:15:09;17.50;84.70
1415;DHT22;702;49.466;11.086;2023-09-08T07:17:36;17.60;84.50
1415;DHT22;702;49.466;11.086;2023-09-08T07:20:04;17.70;84.70
1415;DHT22;702;49.466;11.086;2023-09-08T07:22:32;17.80;84.40
1415;DHT22;702;49.466;11.086;2023-09-08T07:25:00;17.90;84.10
1415;DHT22;702;49.466;11.086;2023-09-08T07:27:28;18.00;84.00
1415;DHT22;702;49.466;11.086;2023-09-08T07:29:55;18.10;84.00
1415;DHT22;702;49.466;11.086;2023-09-08T07:32:23;18.30;83.60
1415;DHT22;702;49.466;11.086;2023-09-08T07:34:50;18.50;83.50
1415;DHT22;702;49.466;11.086;2023-09-08T07:37:20;18.60;82.90
1415;DHT22;702;49.466;11.086;2023-09-08T07:39:48;18.70;82.80
1415;DHT22;702;49.466;11.086;2023-09-08T07:42:16;18.80;83.10
1415;DHT22;702;49.466;11.086;2023-09-08T07:44:44;19.00;82.50
1415;DHT22;702;49.466;11.086;2023-09-08T07:47:11;19.10;82.10
1415;DHT22;702;49.466;11.086;2023-09-08T07:49:44;19.20;81.80
1415;DHT22;702;49.466;11.086;2023-09-08T07:52:12;19.30;81.50
1415;DHT22;702;49.466;11.086;2023-09-08T07:54:40;19.30;81.40
1415;DHT22;702;49.466;11.086;2023-09-08T07:57:07;19.30;81.10
1415;DHT22;702;49.466;11.086;2023-09-08T07:59:34;19.40;80.60
1415;DHT22;702;49.466;11.086;2023-09-08T08:02:03;19.50;80.60
1415;DHT22;702;49.466;11.086;2023-09-08T08:04:30;19.60;80.50
1415;DHT22;702;49.466;11.086;2023-09-08T08:06:57;19.70;80.00
1415;DHT22;702;49.466;11.086;2023-09-08T08:09:25;19.70;79.80
1415;DHT22;702;49.466;11.086;2023-09-08T08:11:52;19.80;79.90
1415;DHT22;702;49.466;11.086;2023-09-08T08:14:19;20.00;79.80
1415;DHT22;702;49.466;11.086;2023-09-08T08:16:47;20.10;79.60
1415;DHT22;702;49.466;11.086;2023-09-08T08:19:15;20.20;79.40
1415;DHT22;702;49.466;11.086;2023-09-08T08:21:42;20.40;79.10
1415;DHT22;702;49.466;11.086;2023-09-08T08:24:10;20.50;79.10
1415;DHT22;702;49.466;11.086;2023-09-08T08:26:38;20.60;78.70
1415;DHT22;702;49.466;11.086;2023-09-08T08:29:05;20.90;78.10
1415;DHT22;702;49.466;11.086;2023-09-08T08:31:32;21.00;77.90
1415;DHT22;702;49.466;11.086;2023-09-08T08:33:59;21.00;76.70
1415;DHT22;702;49.466;11.086;2023-09-08T08:36:28;21.10;77.10
1415;DHT22;702;49.466;11.086;2023-09-08T08:38:55;21.20;76.70
1415;DHT22;702;49.466;11.086;2023-09-08T08:41:23;21.20;76.80
1415;DHT22;702;49.466;11.086;2023-09-08T08:43:51;21.30;76.70
1415;DHT22;702;49.466;11.086;2023-09-08T08:46:18;21.40;76.60
1415;DHT22;702;49.466;11.086;2023-09-08T08:48:48;21.50;76.60
1415;DHT22;702;49.466;11.086;2023-09-08T08:51:18;21.50;76.30
1415;DHT22;702;49.466;11.086;2023-09-08T08:53:47;21.40;76.00
1415;DHT22;702;49.466;11.086;2023-09-08T08:56:15;21.60;75.90
1415;DHT22;702;49.466;11.086;2023-09-08T08:58:43;21.70;76.00
1415;DHT22;702;49.466;11.086;2023-09-08T09:01:11;21.70;75.60
1415;DHT22;702;49.466;11.086;2023-09-08T09:03:40;21.90;74.90
1415;DHT22;702;49.466;11.086;2023-09-08T09:06:07;21.90;74.50
1415;DHT22;702;49.466;11.086;2023-09-08T09:08:35;22.00;74.70
1415;DHT22;702;49.466;11.086;2023-09-08T09:11:04;22.20;74.90
1415;DHT22;702;49.466;11.086;2023-09-08T09:13:31;22.30;74.40
1415;DHT22;702;49.466;11.086;2023-09-08T09:15:59;22.40;73.50
1415;DHT22;702;49.466;11.086;2023-09-08T09:18:29;22.50;71.20
1415;DHT22;702;49.466;11.086;2023-09-08T09:20:59;22.60;70.60
1415;DHT22;702;49.466;11.086;2023-09-08T09:23:28;22.80;69.60
1415;DHT22;702;49.466;11.086;2023-09-08T09:29:26;22.90;70.30
1415;DHT22;702;49.466;11.086;2023-09-08T09:32:16;22.90;68.70
1415;DHT22;702;49.466;11.086;2023-09-08T09:34:59;23.20;68.70
1415;DHT22;702;49.466;11.086;2023-09-08T09:41:24;23.40;66.40
1415;DHT22;702;49.466;11.086;2023-09-08T09:43:56;23.50;65.80
1415;DHT22;702;49.466;11.086;2023-09-08T09:46:57;23.60;65.50
1415;DHT22;702;49.466;11.086;2023-09-08T09:49:41;23.70;65.30
1415;DHT22;702;49.466;11.086;2023-09-08T09:52:23;23.70;64.50
1415;DHT22;702;49.466;11.086;2023-09-08T09:54:55;23.70;65.80
1415;DHT22;702;49.466;11.086;2023-09-08T09:57:23;23.80;65.50
1415;DHT22;702;49.466;11.086;2023-09-08T10:00:02;23.80;65.10
1415;DHT22;702;49.466;11.086;2023-09-08T10:02:32;23.90;65.30
1415;DHT22;702;49.466;11.086;2023-09-08T10:05:19;24.00;64.80
1415;DHT22;702;49.466;11.086;2023-09-08T10:08:13;24.10;63.90
1415;DHT22;702;49.466;11.086;2023-09-08T10:10:52;24.20;63.30
1415;DHT22;702;49.466;11.086;2023-09-08T10:13:27;24.30;62.90
1415;DHT22;702;49.466;11.086;2023-09-08T10:16:43;24.30;63.10
1415;DHT22;702;49.466;11.086;2023-09-08T10:19:24;24.40;62.70
1415;DHT22;702;49.466;11.086;2023-09-08T10:22:05;24.40;62.10
1415;DHT22;702;49.466;11.086;2023-09-08T10:25:12;24.60;62.10
1415;DHT22;702;49.466;11.086;2023-09-08T10:28:12;24.70;60.70
1415;DHT22;702;49.466;11.086;2023-09-08T10:30:53;24.60;60.10
1415;DHT22;702;49.466;11.086;2023-09-08T10:36:43;24.80;59.80
1415;DHT22;702;49.466;11.086;2023-09-08T10:42:33;24.80;59.80
1415;DHT22;702;49.466;11.086;2023-09-08T10:45:01;24.90;60.30
1415;DHT22;702;49.466;11.086;2023-09-08T10:47:59;25.00;60.80
1415;DHT22;702;49.466;11.086;2023-09-08T10:50:38;25.10;60.60
1415;DHT22;702;49.466;11.086;2023-09-08T10:53:16;25.30;60.40
1415;DHT22;702;49.466;11.086;2023-09-08T10:56:16;25.30;60.20
1415;DHT22;702;49.466;11.086;2023-09-08T10:58:54;25.30;59.40
1415;DHT22;702;49.466;11.086;2023-09-08T11:02:01;25.40;59.80
1415;DHT22;702;49.466;11.086;2023-09-08T11:08:54;25.30;60.10
1415;DHT22;702;49.466;11.086;2023-09-08T11:11:25;25.40;59.50
1415;DHT22;702;49.466;11.086;2023-09-08T11:14:30;25.60;59.80
1415;DHT22;702;49.466;11.086;2023-09-08T11:17:37;25.60;58.70
1415;DHT22;702;49.466;11.086;2023-09-08T11:20:30;25.60;59.00
1415;DHT22;702;49.466;11.086;2023-09-08T11:23:39;25.60;58.70
1415;DHT22;702;49.466;11.086;2023-09-08T11:26:36;25.70;58.80
1415;DHT22;702;49.466;11.086;2023-09-08T11:29:20;25.80;58.60
1415;DHT22;702;49.466;11.086;2023-09-08T11:31:56;25.80;59.00
1415;DHT22;702;49.466;11.086;2023-09-08T11:34:43;25.90;59.30
1415;DHT22;702;49.466;11.086;2023-09-08T11:37:39;26.00;58.50
1415;DHT22;702;49.466;11.086;2023-09-08T11:40:42;26.00;58.00
1415;DHT22;702;49.466;11.086;2023-09-08T11:43:12;26.20;58.20
1415;DHT22;702;49.466;11.086;2023-09-08T11:45:58;26.20;57.30
1415;DHT22;702;49.466;11.086;2023-09-08T11:48:41;26.10;57.20
1415;DHT22;702;49.466;11.086;2023-09-08T11:51:11;26.10;56.50
1415;DHT22;702;49.466;11.086;2023-09-08T11:54:14;26.00;56.60
1415;DHT22;702;49.466;11.086;2023-09-08T11:56:55;26.20;56.90
1415;DHT22;702;49.466;11.086;2023-09-08T12:00:08;26.20;56.30
1415;DHT22;702;49.466;11.086;2023-09-08T12:03:29;26.20;56.40
1415;DHT22;702;49.466;11.086;2023-09-08T12:05:59;26.30;56.60
1415;DHT22;702;49.466;11.086;2023-09-08T12:15:40;26.40;55.10
1415;DHT22;702;49.466;11.086;2023-09-08T12:18:46;26.60;55.30
1415;DHT22;702;49.466;11.086;2023-09-08T12:21:17;26.70;55.30
1415;DHT22;702;49.466;11.086;2023-09-08T12:24:08;26.80;55.90
1415;DHT22;702;49.466;11.086;2023-09-08T12:27:04;26.90;55.10
1415;DHT22;702;49.466;11.086;2023-09-08T12:29:37;26.90;55.50
1415;DHT22;702;49.466;11.086;2023-09-08T12:35:48;27.00;55.10
1415;DHT22;702;49.466;11.086;2023-09-08T13:18:56;27.40;49.10
1415;DHT22;702;49.466;11.086;2023-09-08T13:21:44;27.60;48.70
1415;DHT22;702;49.466;11.086;2023-09-08T13:24:31;27.60;49.40
1415;DHT22;702;49.466;11.086;2023-09-08T13:27:19;27.60;48.50
1415;DHT22;702;49.466;11.086;2023-09-08T13:30:11;27.50;48.60
1415;DHT22;702;49.466;11.086;2023-09-08T13:33:00;27.60;48.50
1415;DHT22;702;49.466;11.086;2023-09-08T13:35:48;27.50;48.10
1415;DHT22;702;49.466;11.086;2023-09-08T13:38:36;27.50;48.70
1415;DHT22;702;49.466;11.086;2023-09-08T13:41:23;27.60;49.00
1415;DHT22;702;49.466;11.086;2023-09-08T13:44:11;27.70;49.00
1415;DHT22;702;49.466;11.086;2023-09-08T13:46:58;27.80;48.50
1415;DHT22;702;49.466;11.086;2023-09-08T13:49:45;27.70;47.90
1415;DHT22;702;49.466;11.086;2023-09-08T13:52:34;27.70;47.90
1415;DHT22;702;49.466;11.086;2023-09-08T13:55:22;27.70;47.50
1415;DHT22;702;49.466;11.086;2023-09-08T13:58:09;27.80;49.40
1415;DHT22;702;49.466;11.086;2023-09-08T14:00:57;27.80;49.10
1415;DHT22;702;49.466;11.086;2023-09-08T14:03:44;28.10;49.50
1415;DHT22;702;49.466;11.086;2023-09-08T14:06:32;28.10;51.70
1415;DHT22;702;49.466;11.086;2023-09-08T14:09:21;28.00;51.70
1415;DHT22;702;49.466;11.086;2023-09-08T14:12:08;28.00;51.30
1415;DHT22;702;49.466;11.086;2023-09-08T14:14:56;28.00;51.80
1415;DHT22;702;49.466;11.086;2023-09-08T14:17:43;28.00;52.70
1415;DHT22;702;49.466;11.086;2023-09-08T14:20:30;28.10;52.60
1415;DHT22;702;49.466;11.086;2023-09-08T14:23:18;28.00;52.00
1415;DHT22;702;49.466;11.086;2023-09-08T14:26:06;28.00;51.40
1415;DHT22;702;49.466;11.086;2023-09-08T14:28:34;27.90;50.60
1415;DHT22;702;49.466;11.086;2023-09-08T14:31:01;27.80;50.70
1415;DHT22;702;49.466;11.086;2023-09-08T14:33:29;27.90;51.60
1415;DHT22;702;49.466;11.086;2023-09-08T14:35:57;27.90;51.60
1415;DHT22;702;49.466;11.086;2023-09-08T14:38:24;27.90;51.60
1415;DHT22;702;49.466;11.086;2023-09-08T14:40:55;27.90;51.70
1415;DHT22;702;49.466;11.086;2023-09-08T14:43:24;27.90;51.40
1415;DHT22;702;49.466;11.086;2023-09-08T14:45:52;27.90;51.70
1415;DHT22;702;49.466;11.086;2023-09-08T14:48:22;27.90;52.10
1415;DHT22;702;49.466;11.086;2023-09-08T14:50:49;27.80;51.80
1415;DHT22;702;49.466;11.086;2023-09-08T14:53:17;27.80;51.60
1415;DHT22;702;49.466;11.086;2023-09-08T14:55:44;27.80;51.50
1415;DHT22;702;49.466;11.086;2023-09-08T14:58:13;27.70;51.20
1415;DHT22;702;49.466;11.086;2023-09-08T15:00:42;27.70;51.40
1415;DHT22;702;49.466;11.086;2023-09-08T15:03:11;27.70;50.90
1415;DHT22;702;49.466;11.086;2023-09-08T15:05:38;27.70;50.90
1415;DHT22;702;49.466;11.086;2023-09-08T15:08:06;27.70;51.30
1415;DHT22;702;49.466;11.086;2023-09-08T15:10:33;27.70;51.30
1415;DHT22;702;49.466;11.086;2023-09-08T15:13:00;27.80;50.90
1415;DHT22;702;49.466;11.086;2023-09-08T15:15:29;27.70;50.80
1415;DHT22;702;49.466;11.086;2023-09-08T15:17:58;27.70;50.60
1415;DHT22;702;49.466;11.086;2023-09-08T15:20:25;27.70;50.70
1415;DHT22;702;49.466;11.086;2023-09-08T15:22:52;27.60;50.50
1415;DHT22;702;49.466;11.086;2023-09-08T15:25:19;27.60;50.70
1415;DHT22;702;49.466;11.086;2023-09-08T15:27:49;27.60;50.80
1415;DHT22;702;49.466;11.086;2023-09-08T15:30:16;27.60;51.10
1415;DHT22;702;49.466;11.086;2023-09-08T15:32:43;27.70;51.50
1415;DHT22;702;49.466;11.086;2023-09-08T15:35:13;27.60;50.50
1415;DHT22;702;49.466;11.086;2023-09-08T15:37:40;27.60;51.30
1415;DHT22;702;49.466;11.086;2023-09-08T15:40:08;27.60;50.40
1415;DHT22;702;49.466;11.086;2023-09-08T15:42:40;27.50;50.40
1415;DHT22;702;49.466;11.086;2023-09-08T15:45:09;27.50;50.60
1415;DHT22;702;49.466;11.086;2023-09-08T15:47:36;27.50;50.60
1415;DHT22;702;49.466;11.086;2023-09-08T15:50:05;27.50;50.60
1415;DHT22;702;49.466;11.086;2023-09-08T15:52:36;27.40;50.70
1415;DHT22;702;49.466;11.086;2023-09-08T15:55:03;27.40;50.70
1415;DHT22;702;49.466;11.086;2023-09-08T15:57:31;27.40;50.80
1415;DHT22;702;49.466;11.086;2023-09-08T15:59:58;27.30;50.80
1415;DHT22;702;49.466;11.086;2023-09-08T16:02:25;27.30;50.90
1415;DHT22;702;49.466;11.086;2023-09-08T16:04:52;27.20;50.80
1415;DHT22;702;49.466;11.086;2023-09-08T16:07:22;27.20;51.10
1415;DHT22;702;49.466;11.086;2023-09-08T16:09:51;27.20;50.80
1415;DHT22;702;49.466;11.086;2023-09-08T16:12:18;27.10;51.00
1415;DHT22;702;49.466;11.086;2023-09-08T16:14:45;27.10;51.50
1415;DHT22;702;49.466;11.086;2023-09-08T16:17:12;27.00;50.80
1415;DHT22;702;49.466;11.086;2023-09-08T16:19:39;26.90;51.20
1415;DHT22;702;49.466;11.086;2023-09-08T16:22:08;26.90;51.10
1415;DHT22;702;49.466;11.086;2023-09-08T16:24:35;26.80;50.80
1415;DHT22;702;49.466;11.086;2023-09-08T16:27:04;26.70;51.00
1415;DHT22;702;49.466;11.086;2023-09-08T16:29:31;26.70;50.90
1415;DHT22;702;49.466;11.086;2023-09-08T16:31:58;26.70;50.80
1415;DHT22;702;49.466;11.086;2023-09-08T16:34:26;26.70;51.10
1415;DHT22;702;49.466;11.086;2023-09-08T16:36:53;26.60;50.90
1415;DHT22;702;49.466;11.086;2023-09-08T16:39:20;26.60;51.20
1415;DHT22;702;49.466;11.086;2023-09-08T16:41:47;26.50;51.10
1415;DHT22;702;49.466;11.086;2023-09-08T16:44:15;26.50;51.40
1415;DHT22;702;49.466;11.086;2023-09-08T16:46:42;26.40;51.20
1415;DHT22;702;49.466;11.086;2023-09-08T16:49:09;26.30;51.30
1415;DHT22;702;49.466;11.086;2023-09-08T16:51:37;26.30;51.20
1415;DHT22;702;49.466;11.086;2023-09-08T16:54:04;26.20;51.30
1415;DHT22;702;49.466;11.086;2023-09-08T16:56:32;26.20;51.30
1415;DHT22;702;49.466;11.086;2023-09-08T16:58:59;26.30;51.70
1415;DHT22;702;49.466;11.086;2023-09-08T17:01:28;26.50;51.40
1415;DHT22;702;49.466;11.086;2023-09-08T17:03:55;26.90;51.30
1415;DHT22;702;49.466;11.086;2023-09-08T17:06:22;27.10;51.30
1415;DHT22;702;49.466;11.086;2023-09-08T17:08:49;27.20;51.80
1415;DHT22;702;49.466;11.086;2023-09-08T17:11:16;27.30;51.40
1415;DHT22;702;49.466;11.086;2023-09-08T17:13:44;27.40;51.20
1415;DHT22;702;49.466;11.086;2023-09-08T17:16:11;27.40;51.10
1415;DHT22;702;49.466;11.086;2023-09-08T17:18:40;27.40;51.30
1415;DHT22;702;49.466;11.086;2023-09-08T17:21:07;27.30;51.40
1415;DHT22;702;49.466;11.086;2023-09-08T17:23:34;27.30;51.70
1415;DHT22;702;49.466;11.086;2023-09-08T17:26:02;27.10;51.60
1415;DHT22;702;49.466;11.086;2023-09-08T17:28:29;26.90;52.10
1415;DHT22;702;49.466;11.086;2023-09-08T17:30:57;26.60;52.50
1415;DHT22;702;49.466;11.086;2023-09-08T17:33:25;26.40;52.50
1415;DHT22;702;49.466;11.086;2023-09-08T17:35:53;26.10;52.70
1415;DHT22;702;49.466;11.086;2023-09-08T17:38:20;25.80;52.90
1415;DHT22;702;49.466;11.086;2023-09-08T17:40:48;25.40;53.20